sensor_id;sensor_type;location;lat;lon;timestamp;P1;durP1;ratioP1;P2;durP2;ratioP2
37527;SDS011;23372;52.050;4.810;2023-02-27T00:00:56;8.13;;;2.13;;
37527;SDS011;23372;52.050;4.810;2023-02-27T00:03:23;4.63;;;1.73;;
37527;SDS011;23372;52.050;4.810;2023-02-27T00:05:48;4.00;;;1.30;;
37527;SDS011;23372;52.050;4.810;2023-02-27T00:08:14;4.03;;;1.93;;
37527;SDS011;23372;52.050;4.810;2023-02-27T00:10:39;5.10;;;1.40;;
37527;SDS011;23372;52.050;4.810;2023-02-27T00:13:05;4.30;;;1.30;;
37527;SDS011;23372;52.050;4.810;2023-02-27T00:15:31;4.93;;;1.70;;
37527;SDS011;23372;52.050;4.810;2023-02-27T00:17:59;4.03;;;1.57;;
37527;SDS011;23372;52.050;4.810;2023-02-27T00:20:25;3.80;;;1.33;;
37527;SDS011;23372;52.050;4.810;2023-02-27T00:22:51;7.83;;;1.13;;
37527;SDS011;23372;52.050;4.810;2023-02-27T00:25:17;8.33;;;1.83;;
37527;SDS011;23372;52.050;4.810;2023-02-27T00:27:43;3.97;;;1.53;;
37527;SDS011;23372;52.050;4.810;2023-02-27T00:30:12;11.10;;;4.30;;
37527;SDS011;23372;52.050;4.810;2023-02-27T00:32:39;4.07;;;1.50;;
37527;SDS011;23372;52.050;4.810;2023-02-27T00:35:06;7.77;;;1.73;;
37527;SDS011;23372;52.050;4.810;2023-02-27T00:37:33;3.90;;;1.30;;
37527;SDS011;23372;52.050;4.810;2023-02-27T00:39:59;7.47;;;1.37;;
37527;SDS011;23372;52.050;4.810;2023-02-27T00:42:25;6.67;;;1.20;;
37527;SDS011;23372;52.050;4.810;2023-02-27T00:44:52;11.00;;;1.33;;
37527;SDS011;23372;52.050;4.810;2023-02-27T00:47:17;4.87;;;1.73;;
37527;SDS011;23372;52.050;4.810;2023-02-27T00:49:43;4.93;;;1.50;;
37527;SDS011;23372;52.050;4.810;2023-02-27T00:52:08;5.63;;;0.90;;
37527;SDS011;23372;52.050;4.810;2023-02-27T00:54:34;3.10;;;1.13;;
37527;SDS011;23372;52.050;4.810;2023-02-27T00:57:00;5.67;;;1.27;;
37527;SDS011;23372;52.050;4.810;2023-02-27T00:59:25;3.33;;;0.93;;
37527;SDS011;23372;52.050;4.810;2023-02-27T01:01:51;5.90;;;1.23;;
37527;SDS011;23372;52.050;4.810;2023-02-27T01:04:16;8.27;;;1.67;;
37527;SDS011;23372;52.050;4.810;2023-02-27T01:06:42;4.57;;;1.10;;
37527;SDS011;23372;52.050;4.810;2023-02-27T01:09:07;3.17;;;1.40;;
37527;SDS011;23372;52.050;4.810;2023-02-27T01:11:33;5.10;;;1.43;;
37527;SDS011;23372;52.050;4.810;2023-02-27T01:13:59;2.07;;;1.17;;
37527;SDS011;23372;52.050;4.810;2023-02-27T01:16:24;5.40;;;1.30;;
37527;SDS011;23372;52.050;4.810;2023-02-27T01:18:50;3.80;;;0.80;;
37527;SDS011;23372;52.050;4.810;2023-02-27T01:21:15;6.77;;;1.30;;
37527;SDS011;23372;52.050;4.810;2023-02-27T01:23:41;4.47;;;1.10;;
37527;SDS011;23372;52.050;4.810;2023-02-27T01:26:07;8.40;;;1.33;;
37527;SDS011;23372;52.050;4.810;2023-02-27T01:28:32;4.17;;;1.00;;
37527;SDS011;23372;52.050;4.810;2023-02-27T01:30:58;6.93;;;1.33;;
37527;SDS011;23372;52.050;4.810;2023-02-27T01:33:23;7.47;;;0.90;;
37527;SDS011;23372;52.050;4.810;2023-02-27T01:35:49;4.87;;;1.00;;
37527;SDS011;23372;52.050;4.810;2023-02-27T01:38:14;4.60;;;1.23;;
37527;SDS011;23372;52.050;4.810;2023-02-27T01:40:41;7.07;;;1.10;;
37527;SDS011;23372;52.050;4.810;2023-02-27T01:43:09;3.70;;;1.10;;
37527;SDS011;23372;52.050;4.810;2023-02-27T01:45:42;4.23;;;0.90;;
37527;SDS011;23372;52.050;4.810;2023-02-27T01:50:42;6.17;;;1.00;;
37527;SDS011;23372;52.050;4.810;2023-02-27T01:53:32;2.77;;;0.93;;
37527;SDS011;23372;52.050;4.810;2023-02-27T01:56:04;3.23;;;0.90;;
37527;SDS011;23372;52.050;4.810;2023-02-27T01:58:35;4.00;;;0.90;;
37527;SDS011;23372;52.050;4.810;2023-02-27T02:01:01;3.93;;;1.10;;
37527;SDS011;23372;52.050;4.810;2023-02-27T02:03:47;6.00;;;1.10;;
37527;SDS011;23372;52.050;4.810;2023-02-27T02:06:34;2.77;;;0.70;;
37527;SDS011;23372;52.050;4.810;2023-02-27T02:09:01;4.30;;;1.20;;
37527;SDS011;23372;52.050;4.810;2023-02-27T02:11:29;2.40;;;0.97;;
37527;SDS011;23372;52.050;4.810;2023-02-27T02:13:55;4.73;;;1.20;;
37527;SDS011;23372;52.050;4.810;2023-02-27T02:19:01;3.00;;;1.00;;
37527;SDS011;23372;52.050;4.810;2023-02-27T02:30:58;5.03;;;1.00;;
37527;SDS011;23372;52.050;4.810;2023-02-27T02:50:47;5.00;;;1.03;;
37527;SDS011;23372;52.050;4.810;2023-02-27T02:53:30;6.23;;;1.30;;
37527;SDS011;23372;52.050;4.810;2023-02-27T03:01:29;4.23;;;1.07;;
37527;SDS011;23372;52.050;4.810;2023-02-27T03:04:06;4.97;;;1.50;;
37527;SDS011;23372;52.050;4.810;2023-02-27T03:06:37;3.07;;;1.33;;
37527;SDS011;23372;52.050;4.810;2023-02-27T03:09:07;6.23;;;1.40;;
37527;SDS011;23372;52.050;4.810;2023-02-27T03:11:41;2.17;;;1.00;;
37527;SDS011;23372;52.050;4.810;2023-02-27T03:14:13;4.13;;;1.03;;
37527;SDS011;23372;52.050;4.810;2023-02-27T03:16:54;2.07;;;0.93;;
37527;SDS011;23372;52.050;4.810;2023-02-27T03:19:27;5.57;;;1.47;;
37527;SDS011;23372;52.050;4.810;2023-02-27T03:21:58;2.47;;;1.10;;
37527;SDS011;23372;52.050;4.810;2023-02-27T03:24:44;2.83;;;1.20;;
37527;SDS011;23372;52.050;4.810;2023-02-27T03:27:13;4.67;;;1.37;;
37527;SDS011;23372;52.050;4.810;2023-02-27T03:34:43;7.40;;;1.33;;
37527;SDS011;23372;52.050;4.810;2023-02-27T03:40:28;10.00;;;1.30;;
37527;SDS011;23372;52.050;4.810;2023-02-27T03:42:45;3.23;;;1.20;;
37527;SDS011;23372;52.050;4.810;2023-02-27T03:47:42;5.43;;;0.90;;
37527;SDS011;23372;52.050;4.810;2023-02-27T03:50:09;5.53;;;1.00;;
37527;SDS011;23372;52.050;4.810;2023-02-27T03:52:35;3.17;;;1.40;;
37527;SDS011;23372;52.050;4.810;2023-02-27T03:55:02;5.67;;;1.17;;
37527;SDS011;23372;52.050;4.810;2023-02-27T03:57:35;5.37;;;1.40;;
37527;SDS011;23372;52.050;4.810;2023-02-27T04:00:03;2.43;;;1.10;;
37527;SDS011;23372;52.050;4.810;2023-02-27T04:02:30;4.47;;;1.37;;
37527;SDS011;23372;52.050;4.810;2023-02-27T04:04:56;4.93;;;1.40;;
37527;SDS011;23372;52.050;4.810;2023-02-27T04:29:55;6.50;;;1.33;;
37527;SDS011;23372;52.050;4.810;2023-02-27T04:32:36;4.63;;;1.60;;
37527;SDS011;23372;52.050;4.810;2023-02-27T04:35:12;5.20;;;1.83;;
37527;SDS011;23372;52.050;4.810;2023-02-27T04:38:16;3.67;;;1.80;;
37527;SDS011;23372;52.050;4.810;2023-02-27T04:40:54;10.90;;;2.90;;
37527;SDS011;23372;52.050;4.810;2023-02-27T04:43:41;6.50;;;2.40;;
37527;SDS011;23372;52.050;4.810;2023-02-27T04:46:09;8.53;;;2.80;;
37527;SDS011;23372;52.050;4.810;2023-02-27T04:48:41;6.13;;;3.03;;
37527;SDS011;23372;52.050;4.810;2023-02-27T04:51:18;5.97;;;2.23;;
37527;SDS011;23372;52.050;4.810;2023-02-27T04:53:50;9.50;;;1.97;;
37527;SDS011;23372;52.050;4.810;2023-02-27T04:56:31;11.50;;;2.97;;
37527;SDS011;23372;52.050;4.810;2023-02-27T04:59:10;7.97;;;2.30;;
37527;SDS011;23372;52.050;4.810;2023-02-27T05:02:00;8.20;;;1.50;;
37527;SDS011;23372;52.050;4.810;2023-02-27T05:04:30;3.03;;;2.03;;
37527;SDS011;23372;52.050;4.810;2023-02-27T05:06:59;4.07;;;1.70;;
37527;SDS011;23372;52.050;4.810;2023-02-27T05:09:45;4.20;;;1.53;;
37527;SDS011;23372;52.050;4.810;2023-02-27T05:12:15;6.43;;;1.63;;
37527;SDS011;23372;52.050;4.810;2023-02-27T05:14:50;4.60;;;1.53;;
37527;SDS011;23372;52.050;4.810;2023-02-27T05:17:21;10.47;;;1.87;;
37527;SDS011;23372;52.050;4.810;2023-02-27T05:19:49;3.53;;;1.57;;
37527;SDS011;23372;52.050;4.810;2023-02-27T05:22:20;2.53;;;1.40;;
37527;SDS011;23372;52.050;4.810;2023-02-27T05:25:13;5.03;;;1.93;;
37527;SDS011;23372;52.050;4.810;2023-02-27T05:27:48;5.70;;;2.73;;
37527;SDS011;23372;52.050;4.810;2023-02-27T05:30:21;6.73;;;2.17;;
37527;SDS011;23372;52.050;4.810;2023-02-27T05:33:04;8.53;;;1.50;;
37527;SDS011;23372;52.050;4.810;2023-02-27T05:35:46;7.47;;;1.70;;
37527;SDS011;23372;52.050;4.810;2023-02-27T05:38:14;5.33;;;1.30;;
37527;SDS011;23372;52.050;4.810;2023-02-27T05:40:53;5.03;;;1.57;;
37527;SDS011;23372;52.050;4.810;2023-02-27T05:43:26;9.80;;;1.50;;
37527;SDS011;23372;52.050;4.810;2023-02-27T05:45:57;4.70;;;1.20;;
37527;SDS011;23372;52.050;4.810;2023-02-27T05:48:29;7.80;;;1.40;;
37527;SDS011;23372;52.050;4.810;2023-02-27T05:51:00;6.70;;;1.50;;
37527;SDS011;23372;52.050;4.810;2023-02-27T05:53:28;6.40;;;1.50;;
37527;SDS011;23372;52.050;4.810;2023-02-27T05:55:58;6.23;;;1.30;;
37527;SDS011;23372;52.050;4.810;2023-02-27T05:58:32;6.50;;;1.37;;
37527;SDS011;23372;52.050;4.810;2023-02-27T06:01:04;5.30;;;1.40;;
37527;SDS011;23372;52.050;4.810;2023-02-27T06:03:32;3.10;;;1.30;;
37527;SDS011;23372;52.050;4.810;2023-02-27T06:06:00;3.70;;;1.20;;
37527;SDS011;23372;52.050;4.810;2023-02-27T06:08:29;7.93;;;1.80;;
37527;SDS011;23372;52.050;4.810;2023-02-27T06:10:54;5.97;;;1.70;;
37527;SDS011;23372;52.050;4.810;2023-02-27T06:13:20;4.37;;;1.47;;
37527;SDS011;23372;52.050;4.810;2023-02-27T06:15:47;6.53;;;1.20;;
37527;SDS011;23372;52.050;4.810;2023-02-27T06:18:13;2.80;;;1.27;;
37527;SDS011;23372;52.050;4.810;2023-02-27T06:20:40;3.20;;;1.40;;
37527;SDS011;23372;52.050;4.810;2023-02-27T06:23:06;5.10;;;1.33;;
37527;SDS011;23372;52.050;4.810;2023-02-27T06:25:32;4.40;;;1.57;;
37527;SDS011;23372;52.050;4.810;2023-02-27T06:27:58;6.93;;;1.33;;
37527;SDS011;23372;52.050;4.810;2023-02-27T06:30:23;3.77;;;1.37;;
37527;SDS011;23372;52.050;4.810;2023-02-27T06:32:49;6.53;;;1.90;;
37527;SDS011;23372;52.050;4.810;2023-02-27T06:35:15;3.67;;;1.90;;
37527;SDS011;23372;52.050;4.810;2023-02-27T06:37:40;6.43;;;1.20;;
37527;SDS011;23372;52.050;4.810;2023-02-27T06:40:06;7.97;;;1.67;;
37527;SDS011;23372;52.050;4.810;2023-02-27T06:42:36;5.07;;;1.87;;
37527;SDS011;23372;52.050;4.810;2023-02-27T06:45:02;7.33;;;1.80;;
37527;SDS011;23372;52.050;4.810;2023-02-27T06:47:29;4.30;;;1.90;;
37527;SDS011;23372;52.050;4.810;2023-02-27T06:49:55;7.07;;;1.50;;
37527;SDS011;23372;52.050;4.810;2023-02-27T06:52:21;7.93;;;1.87;;
37527;SDS011;23372;52.050;4.810;2023-02-27T06:54:47;5.47;;;1.63;;
37527;SDS011;23372;52.050;4.810;2023-02-27T06:57:12;3.57;;;1.77;;
37527;SDS011;23372;52.050;4.810;2023-02-27T06:59:38;3.57;;;1.40;;
37527;SDS011;23372;52.050;4.810;2023-02-27T07:02:03;8.10;;;2.37;;
37527;SDS011;23372;52.050;4.810;2023-02-27T07:04:29;5.23;;;2.10;;
37527;SDS011;23372;52.050;4.810;2023-02-27T07:06:55;3.63;;;1.57;;
37527;SDS011;23372;52.050;4.810;2023-02-27T07:09:20;6.43;;;1.57;;
37527;SDS011;23372;52.050;4.810;2023-02-27T07:11:47;5.83;;;2.07;;
37527;SDS011;23372;52.050;4.810;2023-02-27T07:14:12;7.00;;;2.77;;
37527;SDS011;23372;52.050;4.810;2023-02-27T07:16:40;4.90;;;1.80;;
37527;SDS011;23372;52.050;4.810;2023-02-27T07:19:06;10.60;;;2.10;;
37527;SDS011;23372;52.050;4.810;2023-02-27T07:21:32;10.77;;;2.50;;
37527;SDS011;23372;52.050;4.810;2023-02-27T07:23:58;6.80;;;1.73;;
37527;SDS011;23372;52.050;4.810;2023-02-27T07:26:23;6.87;;;1.50;;
37527;SDS011;23372;52.050;4.810;2023-02-27T07:28:49;4.93;;;1.60;;
37527;SDS011;23372;52.050;4.810;2023-02-27T07:31:14;7.13;;;2.10;;
37527;SDS011;23372;52.050;4.810;2023-02-27T07:33:40;7.00;;;1.60;;
37527;SDS011;23372;52.050;4.810;2023-02-27T07:36:05;9.17;;;1.90;;
37527;SDS011;23372;52.050;4.810;2023-02-27T07:38:31;11.60;;;1.83;;
37527;SDS011;23372;52.050;4.810;2023-02-27T07:40:58;5.23;;;1.87;;
37527;SDS011;23372;52.050;4.810;2023-02-27T07:43:24;7.20;;;1.60;;
37527;SDS011;23372;52.050;4.810;2023-02-27T07:45:49;6.70;;;1.63;;
37527;SDS011;23372;52.050;4.810;2023-02-27T07:48:15;2.77;;;1.20;;
37527;SDS011;23372;52.050;4.810;2023-02-27T07:50:42;9.20;;;1.80;;
37527;SDS011;23372;52.050;4.810;2023-02-27T07:53:07;3.50;;;1.60;;
37527;SDS011;23372;52.050;4.810;2023-02-27T07:55:33;4.10;;;1.73;;
37527;SDS011;23372;52.050;4.810;2023-02-27T07:57:59;5.93;;;1.50;;
37527;SDS011;23372;52.050;4.810;2023-02-27T08:00:24;4.30;;;1.53;;
37527;SDS011;23372;52.050;4.810;2023-02-27T08:02:50;5.40;;;1.83;;
37527;SDS011;23372;52.050;4.810;2023-02-27T08:05:16;6.67;;;2.40;;
37527;SDS011;23372;52.050;4.810;2023-02-27T08:07:41;7.37;;;1.70;;
37527;SDS011;23372;52.050;4.810;2023-02-27T08:10:07;6.57;;;1.40;;
37527;SDS011;23372;52.050;4.810;2023-02-27T08:12:33;4.47;;;1.60;;
37527;SDS011;23372;52.050;4.810;2023-02-27T08:14:59;8.80;;;2.33;;
37527;SDS011;23372;52.050;4.810;2023-02-27T08:17:24;6.17;;;1.70;;
37527;SDS011;23372;52.050;4.810;2023-02-27T08:19:50;3.43;;;1.10;;
37527;SDS011;23372;52.050;4.810;2023-02-27T08:22:15;6.10;;;1.90;;
37527;SDS011;23372;52.050;4.810;2023-02-27T08:24:41;6.90;;;1.90;;
37527;SDS011;23372;52.050;4.810;2023-02-27T08:27:07;4.60;;;1.43;;
37527;SDS011;23372;52.050;4.810;2023-02-27T08:29:32;9.97;;;1.60;;
37527;SDS011;23372;52.050;4.810;2023-02-27T08:31:58;4.10;;;1.30;;
37527;SDS011;23372;52.050;4.810;2023-02-27T08:34:25;4.93;;;1.50;;
37527;SDS011;23372;52.050;4.810;2023-02-27T08:36:51;7.43;;;1.30;;
37527;SDS011;23372;52.050;4.810;2023-02-27T08:39:17;6.57;;;1.20;;
37527;SDS011;23372;52.050;4.810;2023-02-27T08:41:44;3.27;;;1.10;;
37527;SDS011;23372;52.050;4.810;2023-02-27T08:44:10;3.80;;;1.17;;
37527;SDS011;23372;52.050;4.810;2023-02-27T08:46:36;6.10;;;1.47;;
37527;SDS011;23372;52.050;4.810;2023-02-27T08:49:02;3.00;;;1.33;;
37527;SDS011;23372;52.050;4.810;2023-02-27T08:51:28;2.97;;;1.20;;
37527;SDS011;23372;52.050;4.810;2023-02-27T08:53:54;4.90;;;1.57;;
37527;SDS011;23372;52.050;4.810;2023-02-27T08:56:22;3.43;;;1.27;;
37527;SDS011;23372;52.050;4.810;2023-02-27T08:58:50;7.43;;;1.47;;
37527;SDS011;23372;52.050;4.810;2023-02-27T09:01:15;5.60;;;2.10;;
37527;SDS011;23372;52.050;4.810;2023-02-27T09:03:41;7.67;;;1.60;;
37527;SDS011;23372;52.050;4.810;2023-02-27T09:06:07;3.27;;;1.50;;
37527;SDS011;23372;52.050;4.810;2023-02-27T09:08:32;5.63;;;1.53;;
37527;SDS011;23372;52.050;4.810;2023-02-27T09:10:58;7.83;;;1.57;;
37527;SDS011;23372;52.050;4.810;2023-02-27T09:13:24;6.30;;;1.40;;
37527;SDS011;23372;52.050;4.810;2023-02-27T09:15:50;5.20;;;1.30;;
37527;SDS011;23372;52.050;4.810;2023-02-27T09:18:16;2.83;;;1.30;;
37527;SDS011;23372;52.050;4.810;2023-02-27T09:20:42;4.80;;;1.53;;
37527;SDS011;23372;52.050;4.810;2023-02-27T09:23:08;6.70;;;1.57;;
37527;SDS011;23372;52.050;4.810;2023-02-27T09:25:34;4.67;;;1.40;;
37527;SDS011;23372;52.050;4.810;2023-02-27T09:27:59;4.53;;;1.30;;
37527;SDS011;23372;52.050;4.810;2023-02-27T09:30:25;4.00;;;1.30;;
37527;SDS011;23372;52.050;4.810;2023-02-27T09:32:51;6.93;;;1.40;;
37527;SDS011;23372;52.050;4.810;2023-02-27T09:35:16;5.40;;;1.40;;
37527;SDS011;23372;52.050;4.810;2023-02-27T09:37:44;3.63;;;1.20;;
37527;SDS011;23372;52.050;4.810;2023-02-27T09:40:32;4.83;;;1.50;;
37527;SDS011;23372;52.050;4.810;2023-02-27T09:42:59;3.80;;;1.10;;
37527;SDS011;23372;52.050;4.810;2023-02-27T09:45:28;5.17;;;1.30;;
37527;SDS011;23372;52.050;4.810;2023-02-27T09:48:07;6.90;;;1.67;;
37527;SDS011;23372;52.050;4.810;2023-02-27T09:53:03;4.80;;;1.27;;
37527;SDS011;23372;52.050;4.810;2023-02-27T09:55:30;3.87;;;1.30;;
37527;SDS011;23372;52.050;4.810;2023-02-27T10:03:22;5.20;;;1.00;;
37527;SDS011;23372;52.050;4.810;2023-02-27T10:06:08;3.23;;;1.07;;
37527;SDS011;23372;52.050;4.810;2023-02-27T10:11:52;3.13;;;0.90;;
37527;SDS011;23372;52.050;4.810;2023-02-27T10:14:41;4.47;;;1.00;;
37527;SDS011;23372;52.050;4.810;2023-02-27T10:17:12;3.43;;;0.97;;
37527;SDS011;23372;52.050;4.810;2023-02-27T10:20:01;8.23;;;1.23;;
37527;SDS011;23372;52.050;4.810;2023-02-27T10:22:34;3.70;;;1.00;;
37527;SDS011;23372;52.050;4.810;2023-02-27T10:27:43;2.63;;;0.90;;
37527;SDS011;23372;52.050;4.810;2023-02-27T10:30:21;5.73;;;1.00;;
37527;SDS011;23372;52.050;4.810;2023-02-27T10:32:55;1.70;;;0.80;;
37527;SDS011;23372;52.050;4.810;2023-02-27T10:35:32;3.73;;;1.10;;
37527;SDS011;23372;52.050;4.810;2023-02-27T10:38:00;3.37;;;0.80;;
37527;SDS011;23372;52.050;4.810;2023-02-27T10:40:29;2.50;;;0.77;;
37527;SDS011;23372;52.050;4.810;2023-02-27T10:42:59;3.67;;;1.20;;
37527;SDS011;23372;52.050;4.810;2023-02-27T10:45:27;3.40;;;1.10;;
37527;SDS011;23372;52.050;4.810;2023-02-27T10:47:52;3.50;;;1.00;;
37527;SDS011;23372;52.050;4.810;2023-02-27T10:52:53;3.33;;;0.93;;
37527;SDS011;23372;52.050;4.810;2023-02-27T10:55:22;6.73;;;1.80;;
37527;SDS011;23372;52.050;4.810;2023-02-27T10:57:54;10.07;;;1.90;;
37527;SDS011;23372;52.050;4.810;2023-02-27T11:00:33;3.03;;;1.07;;
37527;SDS011;23372;52.050;4.810;2023-02-27T11:03:05;8.40;;;1.33;;
37527;SDS011;23372;52.050;4.810;2023-02-27T11:05:40;2.53;;;1.10;;
37527;SDS011;23372;52.050;4.810;2023-02-27T11:08:13;5.90;;;1.30;;
37527;SDS011;23372;52.050;4.810;2023-02-27T11:13:39;3.10;;;1.00;;
37527;SDS011;23372;52.050;4.810;2023-02-27T11:18:34;2.90;;;0.90;;
37527;SDS011;23372;52.050;4.810;2023-02-27T11:21:19;2.57;;;0.63;;
37527;SDS011;23372;52.050;4.810;2023-02-27T11:31:36;4.83;;;0.80;;
37527;SDS011;23372;52.050;4.810;2023-02-27T11:34:03;5.40;;;1.27;;
37527;SDS011;23372;52.050;4.810;2023-02-27T11:36:42;2.30;;;0.83;;
37527;SDS011;23372;52.050;4.810;2023-02-27T11:41:58;8.90;;;1.17;;
37527;SDS011;23372;52.050;4.810;2023-02-27T11:44:53;3.73;;;0.53;;
37527;SDS011;23372;52.050;4.810;2023-02-27T11:47:26;2.53;;;0.77;;
37527;SDS011;23372;52.050;4.810;2023-02-27T11:49:59;4.63;;;0.60;;
37527;SDS011;23372;52.050;4.810;2023-02-27T11:55:18;1.30;;;0.60;;
37527;SDS011;23372;52.050;4.810;2023-02-27T11:57:49;3.60;;;1.00;;
37527;SDS011;23372;52.050;4.810;2023-02-27T12:00:21;6.30;;;0.90;;
37527;SDS011;23372;52.050;4.810;2023-02-27T12:05:30;2.20;;;0.80;;
37527;SDS011;23372;52.050;4.810;2023-02-27T12:08:13;2.30;;;0.57;;
37527;SDS011;23372;52.050;4.810;2023-02-27T12:10:47;2.10;;;0.80;;
37527;SDS011;23372;52.050;4.810;2023-02-27T12:13:21;2.83;;;0.57;;
37527;SDS011;23372;52.050;4.810;2023-02-27T12:16:11;2.63;;;0.90;;
37527;SDS011;23372;52.050;4.810;2023-02-27T12:19:02;5.17;;;0.87;;
37527;SDS011;23372;52.050;4.810;2023-02-27T12:22:03;2.23;;;0.70;;
37527;SDS011;23372;52.050;4.810;2023-02-27T12:24:46;2.87;;;1.33;;
37527;SDS011;23372;52.050;4.810;2023-02-27T12:29:58;2.60;;;0.83;;
37527;SDS011;23372;52.050;4.810;2023-02-27T12:35:23;5.03;;;0.70;;
37527;SDS011;23372;52.050;4.810;2023-02-27T12:37:52;2.40;;;0.80;;
37527;SDS011;23372;52.050;4.810;2023-02-27T12:40:19;0.80;;;0.60;;
37527;SDS011;23372;52.050;4.810;2023-02-27T12:42:51;3.13;;;0.80;;
37527;SDS011;23372;52.050;4.810;2023-02-27T12:48:18;2.47;;;0.67;;
37527;SDS011;23372;52.050;4.810;2023-02-27T12:56:15;0.63;;;0.20;;
37527;SDS011;23372;52.050;4.810;2023-02-27T13:01:47;0.93;;;0.33;;
37527;SDS011;23372;52.050;4.810;2023-02-27T13:09:37;1.20;;;0.40;;
37527;SDS011;23372;52.050;4.810;2023-02-27T13:12:33;1.43;;;0.50;;
37527;SDS011;23372;52.050;4.810;2023-02-27T13:15:07;1.37;;;0.50;;
37527;SDS011;23372;52.050;4.810;2023-02-27T13:25:32;4.33;;;0.70;;
37527;SDS011;23372;52.050;4.810;2023-02-27T13:28:01;1.60;;;0.60;;
37527;SDS011;23372;52.050;4.810;2023-02-27T13:30:32;1.40;;;0.60;;
37527;SDS011;23372;52.050;4.810;2023-02-27T13:35:46;2.53;;;0.70;;
37527;SDS011;23372;52.050;4.810;2023-02-27T13:38:28;1.37;;;0.73;;
37527;SDS011;23372;52.050;4.810;2023-02-27T13:40:54;1.97;;;0.90;;
37527;SDS011;23372;52.050;4.810;2023-02-27T13:45:59;4.43;;;0.70;;
37527;SDS011;23372;52.050;4.810;2023-02-27T13:50:57;2.93;;;1.03;;
37527;SDS011;23372;52.050;4.810;2023-02-27T13:53:24;3.17;;;1.00;;
37527;SDS011;23372;52.050;4.810;2023-02-27T13:55:52;5.57;;;1.10;;
37527;SDS011;23372;52.050;4.810;2023-02-27T13:58:22;3.50;;;1.03;;
37527;SDS011;23372;52.050;4.810;2023-02-27T14:00:56;5.47;;;1.43;;
37527;SDS011;23372;52.050;4.810;2023-02-27T14:03:24;3.43;;;1.30;;
37527;SDS011;23372;52.050;4.810;2023-02-27T14:05:55;3.77;;;1.53;;
37527;SDS011;23372;52.050;4.810;2023-02-27T14:08:23;6.20;;;1.40;;
37527;SDS011;23372;52.050;4.810;2023-02-27T14:16:10;4.67;;;1.17;;
37527;SDS011;23372;52.050;4.810;2023-02-27T14:18:56;5.80;;;1.43;;
37527;SDS011;23372;52.050;4.810;2023-02-27T14:27:05;4.43;;;1.27;;
37527;SDS011;23372;52.050;4.810;2023-02-27T14:29:44;3.77;;;1.27;;
37527;SDS011;23372;52.050;4.810;2023-02-27T14:32:16;3.93;;;1.10;;
37527;SDS011;23372;52.050;4.810;2023-02-27T14:34:44;8.10;;;1.50;;
37527;SDS011;23372;52.050;4.810;2023-02-27T14:37:12;8.33;;;2.87;;
37527;SDS011;23372;52.050;4.810;2023-02-27T14:39:41;3.83;;;1.53;;
37527;SDS011;23372;52.050;4.810;2023-02-27T14:42:19;3.77;;;1.40;;
37527;SDS011;23372;52.050;4.810;2023-02-27T14:44:49;3.97;;;1.30;;
37527;SDS011;23372;52.050;4.810;2023-02-27T14:47:31;5.47;;;1.30;;
37527;SDS011;23372;52.050;4.810;2023-02-27T14:49:58;3.60;;;1.10;;
37527;SDS011;23372;52.050;4.810;2023-02-27T14:52:27;4.70;;;1.20;;
37527;SDS011;23372;52.050;4.810;2023-02-27T14:57:52;3.20;;;1.07;;
37527;SDS011;23372;52.050;4.810;2023-02-27T15:00:27;4.70;;;1.50;;
37527;SDS011;23372;52.050;4.810;2023-02-27T15:02:59;5.83;;;1.30;;
37527;SDS011;23372;52.050;4.810;2023-02-27T15:05:34;3.60;;;1.00;;
37527;SDS011;23372;52.050;4.810;2023-02-27T15:08:00;2.83;;;0.80;;
37527;SDS011;23372;52.050;4.810;2023-02-27T15:10:27;7.47;;;1.30;;
37527;SDS011;23372;52.050;4.810;2023-02-27T15:12:58;9.07;;;1.10;;
37527;SDS011;23372;52.050;4.810;2023-02-27T15:15:24;5.10;;;1.17;;
37527;SDS011;23372;52.050;4.810;2023-02-27T15:17:51;6.63;;;1.30;;
37527;SDS011;23372;52.050;4.810;2023-02-27T15:20:23;5.20;;;1.10;;
37527;SDS011;23372;52.050;4.810;2023-02-27T15:22:53;2.47;;;0.90;;
37527;SDS011;23372;52.050;4.810;2023-02-27T15:25:30;3.10;;;0.93;;
37527;SDS011;23372;52.050;4.810;2023-02-27T15:28:00;1.87;;;1.00;;
37527;SDS011;23372;52.050;4.810;2023-02-27T15:30:31;3.30;;;0.70;;
37527;SDS011;23372;52.050;4.810;2023-02-27T15:32:57;1.80;;;0.70;;
37527;SDS011;23372;52.050;4.810;2023-02-27T15:35:26;2.43;;;0.67;;
37527;SDS011;23372;52.050;4.810;2023-02-27T15:37:56;2.30;;;0.73;;
37527;SDS011;23372;52.050;4.810;2023-02-27T15:40:25;1.20;;;0.53;;
37527;SDS011;23372;52.050;4.810;2023-02-27T15:42:52;2.30;;;0.67;;
37527;SDS011;23372;52.050;4.810;2023-02-27T15:45:20;2.07;;;0.60;;
37527;SDS011;23372;52.050;4.810;2023-02-27T15:47:50;4.43;;;0.90;;
37527;SDS011;23372;52.050;4.810;2023-02-27T15:52:42;4.93;;;1.13;;
37527;SDS011;23372;52.050;4.810;2023-02-27T15:55:23;1.90;;;0.70;;
37527;SDS011;23372;52.050;4.810;2023-02-27T15:57:54;5.20;;;1.00;;
37527;SDS011;23372;52.050;4.810;2023-02-27T16:00:21;6.40;;;1.10;;
37527;SDS011;23372;52.050;4.810;2023-02-27T16:02:51;2.40;;;0.90;;
37527;SDS011;23372;52.050;4.810;2023-02-27T16:05:24;4.60;;;0.57;;
37527;SDS011;23372;52.050;4.810;2023-02-27T16:07:54;2.67;;;0.90;;
37527;SDS011;23372;52.050;4.810;2023-02-27T16:10:22;2.27;;;0.83;;
37527;SDS011;23372;52.050;4.810;2023-02-27T16:12:50;5.03;;;0.87;;
37527;SDS011;23372;52.050;4.810;2023-02-27T16:15:29;2.70;;;0.70;;
37527;SDS011;23372;52.050;4.810;2023-02-27T16:23:45;2.63;;;0.97;;
37527;SDS011;23372;52.050;4.810;2023-02-27T16:28:54;3.67;;;1.40;;
37527;SDS011;23372;52.050;4.810;2023-02-27T16:31:21;2.33;;;0.83;;
37527;SDS011;23372;52.050;4.810;2023-02-27T16:33:49;2.70;;;0.60;;
37527;SDS011;23372;52.050;4.810;2023-02-27T16:36:17;2.80;;;0.80;;
37527;SDS011;23372;52.050;4.810;2023-02-27T16:38:45;2.47;;;0.90;;
37527;SDS011;23372;52.050;4.810;2023-02-27T16:41:11;3.23;;;0.70;;
37527;SDS011;23372;52.050;4.810;2023-02-27T16:43:41;2.43;;;0.83;;
37527;SDS011;23372;52.050;4.810;2023-02-27T16:46:09;1.70;;;0.80;;
37527;SDS011;23372;52.050;4.810;2023-02-27T16:48:35;3.90;;;0.70;;
37527;SDS011;23372;52.050;4.810;2023-02-27T16:51:01;2.87;;;1.17;;
37527;SDS011;23372;52.050;4.810;2023-02-27T16:53:26;2.80;;;0.90;;
37527;SDS011;23372;52.050;4.810;2023-02-27T16:55:52;3.60;;;0.93;;
37527;SDS011;23372;52.050;4.810;2023-02-27T16:58:19;3.87;;;0.80;;
37527;SDS011;23372;52.050;4.810;2023-02-27T17:00:45;3.97;;;1.00;;
37527;SDS011;23372;52.050;4.810;2023-02-27T17:03:11;4.10;;;0.77;;
37527;SDS011;23372;52.050;4.810;2023-02-27T17:05:38;3.37;;;1.50;;
37527;SDS011;23372;52.050;4.810;2023-02-27T17:08:05;4.20;;;0.97;;
37527;SDS011;23372;52.050;4.810;2023-02-27T17:10:30;4.40;;;1.20;;
37527;SDS011;23372;52.050;4.810;2023-02-27T17:12:56;2.80;;;0.73;;
37527;SDS011;23372;52.050;4.810;2023-02-27T17:15:22;3.23;;;1.30;;
37527;SDS011;23372;52.050;4.810;2023-02-27T17:17:47;2.73;;;1.00;;
37527;SDS011;23372;52.050;4.810;2023-02-27T17:20:13;3.73;;;1.30;;
37527;SDS011;23372;52.050;4.810;2023-02-27T17:22:40;6.03;;;1.40;;
37527;SDS011;23372;52.050;4.810;2023-02-27T17:25:07;1.83;;;0.93;;
37527;SDS011;23372;52.050;4.810;2023-02-27T17:27:34;2.23;;;1.00;;
37527;SDS011;23372;52.050;4.810;2023-02-27T17:30:00;2.60;;;0.93;;
37527;SDS011;23372;52.050;4.810;2023-02-27T17:32:26;3.57;;;1.33;;
37527;SDS011;23372;52.050;4.810;2023-02-27T17:34:54;2.57;;;1.40;;
37527;SDS011;23372;52.050;4.810;2023-02-27T17:37:20;2.07;;;1.00;;
37527;SDS011;23372;52.050;4.810;2023-02-27T17:39:46;2.65;;;1.60;;
37527;SDS011;23372;52.050;4.810;2023-02-27T17:42:12;3.13;;;1.27;;
37527;SDS011;23372;52.050;4.810;2023-02-27T17:44:42;5.03;;;1.27;;
37527;SDS011;23372;52.050;4.810;2023-02-27T17:47:11;2.77;;;1.27;;
37527;SDS011;23372;52.050;4.810;2023-02-27T17:49:37;2.40;;;1.40;;
37527;SDS011;23372;52.050;4.810;2023-02-27T17:52:03;2.60;;;1.47;;
37527;SDS011;23372;52.050;4.810;2023-02-27T17:54:31;5.30;;;1.20;;